Latest Weather Observations for Brisbane

IDQ60801

Issued at 5:02 pm EST Friday 26 May 2017 (issued every 30 minutes, with the page automatically refreshed every 10 minutes)

About weather observations | Map of weather stations | Latest weather observations for QLD | Other Formats
Station Details ID: 040913 Name: BRISBANE Lat: -27.48 Lon: 153.04 Height: 8.13 m
Data from the previous 72 hours. | See also: Recent months at Brisbane
Date/Time
EST
Temp
°C
App
Temp
°C
Dew
Point
°C
Rel
Hum
%
Delta-T
°C
Wind Press
QNH
hPa
Press
MSL
hPa
Rain since
9am
mm
Dir  Spd
km/h
Gust
km/h
Spd
kts
Gust
kts
26/05:00pm 21.0 21.3 13.4 62 4.4 E 4 7 2 4 1018.4 1018.4 0.0
26/04:30pm 21.9 22.3 13.8 60 4.7 ENE 4 6 2 3 1018.2 1018.2 0.0
26/04:00pm 22.4 22.6 14.3 60 4.7 NE 6 9 3 5 1018.1 1018.1 0.0
26/03:30pm 23.1 22.8 14.4 58 5.1 NE 9 13 5 7 1017.8 1017.8 0.0
26/03:00pm 23.3 23.5 14.3 57 5.3 ENE 6 9 3 5 1017.9 1017.9 0.0
26/02:30pm 23.2 23.8 13.1 53 5.8 SSE 2 6 1 3 1018.1 1018.1 0.0
26/02:00pm 24.0 23.9 13.2 50 6.2 SE 6 9 3 5 1018.3 1018.3 0.0
26/01:30pm 24.1 24.2 13.9 53 6.0 SE 6 9 3 5 1018.5 1018.5 0.0
26/01:00pm 24.5 25.0 14.0 52 6.2 W 4 9 2 5 1018.9 1018.9 0.0
26/12:30pm 24.4 25.6 14.8 55 5.7 WSW 2 7 1 4 1019.3 1019.3 0.0
26/12:00pm 23.4 23.4 13.6 54 5.7 SSE 6 11 3 6 1020.0 1020.0 0.0
26/11:30am 23.0 23.4 13.8 56 5.4 SW 4 7 2 4 1020.5 1020.5 0.0
26/11:00am 22.9 23.7 14.7 60 4.8 S 4 9 2 5 1021.0 1021.0 0.0
26/10:30am 22.2 22.8 14.3 61 4.6 SW 4 9 2 5 1021.4 1021.4 0.0
26/10:00am 21.0 20.8 13.7 63 4.2 WSW 7 13 4 7 1021.5 1021.5 0.0
26/09:30am 20.2 20.2 14.3 69 3.4 WSW 7 11 4 6 1021.8 1021.8 0.0
26/09:00am 19.5 19.7 14.3 72 3.0 SW 6 9 3 5 1021.6 1021.6 0.0
26/08:30am 18.6 19.1 14.1 75 2.6 SW 4 7 2 4 1021.1 1021.1 0.0
26/08:00am 17.5 17.9 13.8 79 2.1 SSW 4 6 2 3 1020.9 1020.9 0.0
26/07:30am 16.2 16.7 13.9 86 1.3 SW 4 9 2 5 1020.8 1020.8 0.0
26/07:00am 15.5 16.4 13.9 90 0.9 SW 2 6 1 3 1020.2 1020.2 0.0
26/06:30am 15.5 15.9 13.7 89 1.0 WSW 4 7 2 4 1020.0 1020.0 0.0
26/06:00am 15.7 16.5 13.7 88 1.1 SW 2 6 1 3 1019.5 1019.5 0.0
26/05:30am 15.9 16.4 13.9 88 1.1 SW 4 7 2 4 1019.4 1019.4 0.0
26/05:00am 15.8 16.6 13.6 87 1.2 SSW 2 6 1 3 1019.1 1019.1 0.0
26/04:30am 15.7 16.5 13.7 88 1.1 SW 2 4 1 2 1019.0 1019.0 0.0
26/04:00am 15.4 16.2 13.6 89 1.0 SW 2 4 1 2 1019.1 1019.1 0.0
26/03:30am 15.1 15.4 13.5 90 0.9 WSW 4 7 2 4 1019.3 1019.3 0.0
26/03:00am 15.2 15.2 13.7 91 0.8 WSW 6 7 3 4 1019.3 1019.3 0.0
26/02:30am 15.1 15.8 13.3 89 1.0 WSW 2 4 1 2 1019.4 1019.4 0.0
26/02:00am 15.4 16.1 13.4 88 1.1 WSW 2 6 1 3 1019.7 1019.7 0.0
26/01:30am 15.7 16.4 13.5 87 1.2 WSW 2 4 1 2 1019.8 1019.8 0.0
26/01:00am 16.0 16.4 13.7 86 1.3 WSW 4 6 2 3 1020.0 1020.0 0.0
26/12:30am 16.3 16.8 14.1 87 1.2 SW 4 6 2 3 1020.0 1020.0 0.0
26/12:00am 15.9 17.2 14.1 89 1.0 CALM 0 0 0 0 1020.0 1020.0 0.0
 
Date/Time
EST
Temp
°C
App
Temp
°C
Dew
Point
°C
Rel
Hum
%
Delta-T
°C
Wind Press
QNH
hPa
Press
MSL
hPa
Rain since
9am
mm
Dir  Spd
km/h
Gust
km/h
Spd
kts
Gust
kts
25/11:30pm 15.3 16.3 13.3 88 1.1 CALM 0 0 0 0 1020.1 1020.1 0.0
25/11:00pm 15.8 16.5 13.5 86 1.3 WSW 2 4 1 2 1020.1 1020.1 0.0
25/10:30pm 16.5 17.8 14.0 85 1.4 CALM 0 4 0 2 1020.1 1020.1 0.0
25/10:00pm 16.6 17.7 13.5 82 1.7 CALM 0 4 0 2 1020.2 1020.2 0.0
25/09:30pm 16.6 17.8 13.9 84 1.5 CALM 0 4 0 2 1020.1 1020.1 0.0
25/09:00pm 16.9 18.0 14.5 86 1.4 SE 2 6 1 3 1020.1 1020.1 0.0
25/08:30pm 16.6 17.8 13.9 84 1.5 CALM 0 0 0 0 1020.0 1020.0 0.0
25/08:00pm 16.8 18.2 14.3 85 1.4 CALM 0 0 0 0 1019.9 1019.9 0.0
25/07:30pm 16.9 18.1 13.8 82 1.8 CALM 0 0 0 0 1019.7 1019.7 0.0
25/07:00pm 17.5 18.8 14.0 80 2.0 CALM 0 0 0 0 1019.4 1019.4 0.0
25/06:30pm 18.1 19.3 13.8 76 2.4 CALM 0 0 0 0 1019.1 1019.1 0.0
25/06:00pm 19.4 19.9 14.0 71 3.1 E 4 6 2 3 1018.8 1018.8 0.0
25/05:30pm 19.9 20.3 13.8 68 3.5 E 4 9 2 5 1018.4 1018.4 0.0
25/05:00pm 20.6 20.6 13.6 64 4.0 E 6 7 3 4 1018.2 1018.2 0.0
25/04:30pm 21.4 21.2 13.6 61 4.5 ESE 7 15 4 8 1017.8 1017.8 0.0
25/04:00pm 22.2 21.9 13.3 57 5.1 E 7 13 4 7 1017.6 1017.6 0.0
25/03:30pm 22.8 22.2 13.6 56 5.3 E 9 17 5 9 1017.4 1017.4 0.0
25/03:00pm 23.1 22.9 13.0 53 5.8 E 6 13 3 7 1017.2 1017.2 0.0
25/02:30pm 24.0 23.1 12.6 49 6.5 ESE 9 17 5 9 1017.2 1017.2 0.0
25/02:00pm 24.1 23.6 12.1 47 6.8 E 6 9 3 5 1017.2 1017.2 0.0
25/01:30pm 24.7 24.6 13.9 51 6.4 SSE 7 13 4 7 1017.3 1017.3 0.0
25/01:00pm 23.3 23.0 12.6 51 6.1 SE 6 13 3 7 1017.4 1017.4 0.0
25/12:30pm 24.2 23.3 12.5 48 6.7 E 9 15 5 8 1017.8 1017.8 0.0
25/12:00pm 23.8 23.5 13.4 52 6.0 SE 7 15 4 8 1018.1 1018.1 0.0
25/11:30am 23.3 22.8 13.8 55 5.5 SE 9 19 5 10 1018.6 1018.6 0.0
25/11:00am 23.0 23.0 13.5 55 5.5 SSW 6 13 3 7 1018.9 1018.9 0.0
25/10:30am 22.4 22.2 12.9 55 5.4 SSW 6 11 3 6 1019.1 1019.1 0.0
25/10:00am 21.7 21.7 12.3 55 5.3 SSW 4 9 2 5 1019.2 1019.2 0.0
25/09:30am 20.5 20.1 12.5 60 4.5 SW 6 13 3 7 1019.4 1019.4 0.0
25/09:00am 19.5 19.2 12.8 65 3.8 SW 6 11 3 6 1019.4 1019.4 0.2
25/08:30am 18.4 18.4 12.4 68 3.3 SW 4 9 2 5 1019.2 1019.2 0.2
25/08:00am 17.1 17.2 12.8 76 2.4 SW 4 7 2 4 1019.1 1019.1 0.2
25/07:30am 16.2 16.4 13.1 82 1.7 SW 4 9 2 5 1018.7 1018.7 0.2
25/07:00am 15.1 15.4 13.3 89 1.0 WSW 4 7 2 4 1018.4 1018.4 0.0
25/06:30am 14.9 15.6 13.3 90 0.9 W 2 6 1 3 1018.1 1018.1 0.0
25/06:00am 14.3 14.8 12.9 91 0.8 WSW 2 6 1 3 1017.7 1017.7 0.0
25/05:30am 14.5 15.0 12.9 90 0.9 WSW 2 9 1 5 1017.1 1017.1 0.0
25/05:00am 14.4 15.2 12.6 89 1.0 CALM 0 2 0 1 1016.6 1016.6 0.0
25/04:30am 15.3 15.6 13.3 88 1.1 S 4 6 2 3 1016.2 1016.2 0.0
25/04:00am 16.0 16.2 14.2 89 1.0 S 6 9 3 5 1016.3 1016.3 0.0
25/03:30am 15.9 16.2 14.6 92 0.7 SSE 6 9 3 5 1016.3 1016.3 0.0
25/03:00am 16.2 17.4 14.9 92 0.7 SW 2 6 1 3 1016.0 1016.0 0.0
25/02:30am 16.6 17.7 15.5 93 0.6 W 4 6 2 3 1015.6 1015.6 0.0
25/02:00am 17.1 18.8 16.1 94 0.6 SW 2 6 1 3 1015.9 1015.9 0.0
25/01:30am 17.4 18.9 16.6 95 0.5 WSW 4 9 2 5 1015.9 1015.9 0.0
25/01:00am 17.6 19.2 16.8 95 0.5 WSW 4 9 2 5 1016.2 1016.2 0.0
25/12:30am 17.8 19.8 17.0 95 0.5 SW 2 6 1 3 1016.4 1016.4 0.0
25/12:00am 18.2 20.1 17.6 96 0.4 WSW 4 7 2 4 1016.2 1016.2 0.0
 
Date/Time
EST
Temp
°C
App
Temp
°C
Dew
Point
°C
Rel
Hum
%
Delta-T
°C
Wind Press
QNH
hPa
Press
MSL
hPa
Rain since
9am
mm
Dir  Spd
km/h
Gust
km/h
Spd
kts
Gust
kts
24/11:30pm 17.5 19.7 16.5 94 0.6 CALM 0 4 0 2 1016.3 1016.3 0.0
24/11:00pm 17.6 19.7 16.3 92 0.8 CALM 0 0 0 0 1016.4 1016.4 0.0
24/10:30pm 18.5 21.0 17.3 93 0.7 CALM 0 0 0 0 1016.3 1016.3 0.0
24/10:00pm 18.9 21.0 17.2 90 1.0 ENE 2 6 1 3 1016.3 1016.3 0.0
24/09:30pm 19.5 21.8 17.6 89 1.2 NE 2 6 1 3 1016.2 1016.2 0.0
24/09:00pm 19.6 21.9 17.7 89 1.2 NNE 2 4 1 2 1016.1 1016.1 0.0
24/08:30pm 20.0 22.1 18.1 89 1.2 NE 4 6 2 3 1016.1 1016.1 0.0
24/08:00pm 20.0 22.3 17.8 87 1.4 ENE 2 4 1 2 1016.1 1016.1 0.0
24/07:30pm 20.7 22.5 18.3 86 1.5 ENE 6 7 3 4 1016.1 1016.1 0.0
24/07:00pm 20.6 23.1 18.2 86 1.5 NNE 2 6 1 3 1016.0 1016.0 0.0
24/06:30pm 20.8 23.0 18.4 86 1.5 NNE 4 7 2 4 1015.9 1015.9 0.0
24/06:00pm 21.0 23.1 18.2 84 1.7 NE 4 7 2 4 1015.7 1015.7 0.0
24/05:30pm 21.5 23.5 17.9 80 2.2 NE 4 6 2 3 1015.6 1015.6 0.0
24/05:00pm 22.0 23.5 17.6 76 2.7 NE 6 11 3 6 1015.4 1015.4 0.0
24/04:30pm 23.2 24.6 17.4 70 3.6 NE 6 9 3 5 1015.2 1015.2 0.0
24/04:00pm 24.8 26.3 17.5 64 4.5 NE 6 11 3 6 1015.0 1015.0 0.0
24/03:30pm 26.6 28.7 17.1 56 5.9 NNW 2 9 1 5 1014.8 1014.8 0.0
24/03:00pm 27.3 27.3 14.3 45 7.8 NW 7 13 4 7 1014.9 1014.9 0.0
24/02:30pm 27.1 28.6 16.7 53 6.5 W 4 7 2 4 1015.1 1015.1 0.0
24/02:00pm 26.6 28.7 17.1 56 5.9 WSW 2 7 1 4 1015.5 1015.5 0.0
24/01:30pm 25.5 27.0 16.6 58 5.5 SW 4 7 2 4 1016.0 1016.0 0.0
24/01:00pm 24.6 26.3 17.1 63 4.6 WSW 4 11 2 6 1016.3 1016.3 0.0
24/12:30pm 22.9 23.9 16.4 67 4.0 SW 6 9 3 5 1017.0 1017.0 0.0
24/12:00pm 23.0 24.3 17.0 69 3.7 SW 6 11 3 6 1017.7 1017.7 0.0
24/11:30am 22.4 23.5 16.7 70 3.5 SW 6 11 3 6 1018.2 1018.2 0.0
24/11:00am 22.2 23.4 16.9 72 3.2 SSW 6 11 3 6 1018.8 1018.8 0.0
24/10:30am 21.1 22.3 16.9 77 2.6 SW 6 9 3 5 1019.2 1019.2 0.0
24/10:00am 20.1 21.2 16.5 80 2.2 S 6 11 3 6 1019.8 1019.8 0.0
24/09:30am 19.4 20.3 16.6 84 1.7 SW 7 13 4 7 1020.3 1020.3 0.0
24/09:00am 18.4 19.4 16.9 91 0.9 WSW 7 13 4 7 1020.2 1020.2 0.0
24/08:30am 17.5 19.0 16.7 95 0.5 SW 4 7 2 4 1019.9 1019.9 0.0
24/08:00am 16.8 17.8 16.3 97 0.3 SW 6 9 3 5 1019.9 1019.9 0.0
24/07:30am 16.4 17.2 15.9 97 0.3 WSW 6 11 3 6 1019.7 1019.7 0.0
24/07:00am 16.3 16.9 15.8 97 0.3 WSW 7 11 4 6 1019.5 1019.5 0.0
24/06:30am 16.4 17.7 16.1 98 0.2 WSW 4 9 2 5 1019.4 1019.4 0.0
24/06:00am 16.3 17.5 16.0 98 0.2 SSW 4 7 2 4 1019.3 1019.3 0.0
24/05:30am 16.4 17.7 16.1 98 0.2 SSW 4 6 2 3 1019.0 1019.0 0.0
24/05:00am 16.5 17.8 16.2 98 0.2 SW 4 9 2 5 1018.8 1018.8 0.0
24/04:30am 16.6 17.9 16.1 97 0.3 SW 4 7 2 4 1018.5 1018.5 0.0
24/04:00am 16.6 17.9 16.1 97 0.3 SW 4 9 2 5 1018.6 1018.6 0.0
24/03:30am 16.6 18.3 16.1 97 0.3 SW 2 6 1 3 1018.6 1018.6 0.0
24/03:00am 16.6 17.8 16.0 96 0.4 S 4 6 2 3 1018.6 1018.6 0.0
24/02:30am 16.5 18.1 15.9 96 0.4 SSW 2 4 1 2 1018.7 1018.7 0.0
24/02:00am 16.2 18.0 15.4 95 0.5 CALM 0 0 0 0 1018.9 1018.9 0.0
24/01:30am 16.4 18.2 15.6 95 0.5 CALM 0 0 0 0 1019.1 1019.1 0.0
24/01:00am 16.6 18.6 16.0 96 0.4 CALM 0 0 0 0 1019.2 1019.2 0.0
24/12:30am 16.4 18.2 15.4 94 0.6 CALM 0 2 0 1 1019.7 1019.7 0.0
24/12:00am 16.6 18.4 15.6 94 0.6 CALM 0 0 0 0 1020.2 1020.2 0.0
 
Date/Time
EST
Temp
°C
App
Temp
°C
Dew
Point
°C
Rel
Hum
%
Delta-T
°C
Wind Press
QNH
hPa
Press
MSL
hPa
Rain since
9am
mm
Dir  Spd
km/h
Gust
km/h
Spd
kts
Gust
kts
23/11:30pm 16.9 18.9 16.1 95 0.5 CALM 0 0 0 0 1020.5 1020.5 0.0
23/11:00pm 17.1 19.1 16.0 93 0.6 CALM 0 0 0 0 1020.5 1020.5 0.0
23/10:30pm 17.2 19.2 16.1 93 0.7 CALM 0 0 0 0 1020.6 1020.6 0.0
23/10:00pm 17.4 19.4 16.1 92 0.8 CALM 0 0 0 0 1020.6 1020.6 0.0
23/09:30pm 17.7 19.9 16.4 92 0.8 CALM 0 0 0 0 1020.6 1020.6 0.0
23/09:00pm 17.9 20.1 16.4 91 0.9 CALM 0 0 0 0 1020.6 1020.6 0.0
23/08:30pm 18.3 20.5 16.6 90 1.0 CALM 0 0 0 0 1020.4 1020.4 0.0
23/08:00pm 18.6 20.8 16.4 87 1.3 CALM 0 0 0 0 1020.4 1020.4 0.0
23/07:30pm 19.1 21.4 16.7 86 1.4 CALM 0 0 0 0 1020.1 1020.1 0.0
23/07:00pm 19.8 21.4 17.0 84 1.7 E 4 6 2 3 1019.9 1019.9 0.0
23/06:30pm 20.2 22.2 17.0 82 1.9 E 2 4 1 2 1019.8 1019.8 0.0
23/06:00pm 20.9 23.0 17.3 80 2.2 E 2 6 1 3 1019.4 1019.4 0.0
23/05:30pm 21.2 22.8 16.0 72 3.1 NE 2 6 1 3 1019.1 1019.1 0.0

Other Formats:

Comma delimited format used in spreadsheet applications
http://www.bom.gov.au/fwo/IDQ60801/IDQ60801.94576.axf

JavaScript Object Notation format (JSON) in row-major order
http://www.bom.gov.au/fwo/IDQ60801/IDQ60801.94576.json